Tiempo atmosférico en la estación meteorológica de Molina De Aragón, Guadalajara (1056 m.)



Fecha
DESCASC
Temp. máxima en grados centígrados (hora)
DESCASC
Temp. mínima en grados centígrados (hora)
DESCASC
Temp. media en grados centígrados
DESCASC
Racha de viento máxima en m/sg (hora)
DESCASC
Velocidad máxima media en intervalos de 10 minutos(hora)
DESCASC
Precipitaciones diarias en mm
DESCASC
Precipitaciones de 00:00 a 06:00 en mm
DESCASC
Precipitaciones de 06:00 a 12:00 en mm
DESCASC
Precipitaciones de 12:00 a 18:00 en mm
DESCASC
Precipitaciones de 18:00 a 24:00 en mm
DESCASC
20-09-2018 28.9 (14:40) 10.9 (08:00) 19.9 7.5 (18:30) 3.89 (18:20) 0.4 0 0 0 0.4
19-09-2018 27.8 (16:40) 10.5 (08:30) 19.1 5.56 (17:00) 2.22 (16:20) 0 0 0 0 0
18-09-2018 26 (16:00) 11.7 (08:10) 18.8 7.22 (18:30) 3.33 (18:30) 3.2 0.6 0 0.8 1.8
17-09-2018 26.8 (13:40) 9.5 (07:50) 18.1 7.78 (15:50) 3.61 (15:50) 5.6 0 0 0.6 5
16-09-2018 27.9 (17:50) 9.5 (00:00) 18.7 5.28 (16:20) 2.5 (16:20) 0 0 0 0 0
15-09-2018 27.4 (17:10) 11.6 (00:00) 19.5 7.22 (18:40) 3.61 (19:10) 0 0 0 0 0
14-09-2018 28.8 (16:30) 10.1 (00:00) 19.4 6.39 (16:50) 2.78 (16:50) 0 0 0 0 0
13-09-2018 28.2 (16:30) 10.3 (00:00) 19.3 6.11 (15:40) 2.5 (14:20) 0 0 0 0 0
12-09-2018 25.9 (17:00) 12.5 (00:00) 19.2 7.5 (05:10) 3.06 (14:20) 7.2 5.8 1.4 0 0
11-09-2018 21.5 (13:10) 9.4 (00:00) 15.4 7.5 (14:00) 3.61 (14:00) 1.4 0 0 0 1.4
10-09-2018 24.6 (17:30) 11.7 (00:00) 18.2 8.06 (19:00) 3.89 (19:00) 0 0 0 0 0
09-09-2018 25.8 (15:20) 12.8 (00:00) 19.3 9.72 (21:00) 4.17 (19:00) 19.8 0 0 0 19.8
08-09-2018 24.9 (16:10) 11 (00:00) 17.9 6.94 (19:10) 4.72 (19:10) 0 0 0 0 0
07-09-2018 25.2 (15:20) 9.3 (00:00) 17.3 18.61 (17:00) 9.17 (17:00) 14.4 0 0 14.4 0
06-09-2018 23.4 (13:50) 10.3 (00:00) 16.8 8.33 (17:20) 4.72 (17:20) 0 0 0 0 0
05-09-2018 25.9 (15:50) 10.3 (00:00) 18.1 11.94 (14:40) 5.56 (18:20) 0 0 0 0 0
04-09-2018 28.7 (16:10) 12.3 (00:00) 20.5 8.33 (18:10) 4.17 (18:10) 0 0 0 0 0
03-09-2018 29.8 (17:30) 16.3 (00:00) 23 11.11 (20:20) 6.11 (21:00) 3.4 0 3.4 0 0
02-09-2018 31.1 (16:40) 12 (00:00) 21.6 7.78 (14:10) 3.61 (15:30) 0 0 0 0 0
01-09-2018 30.4 (17:00) 11.3 (00:00) 20.8 5.83 (17:20) 2.5 (17:20) 0 0 0 0 0
31-08-2018 29.5 (16:00) 12.5 (00:00) 21 7.78 (19:20) 3.33 (14:40) 0 0 0 0 0
30-08-2018 28.9 (15:30) 12.3 (00:00) 20.6 10.28 (20:50) 3.61 (20:40) 8.6 0 0 0 8.6
29-08-2018 28.8 (17:20) 12.9 (00:00) 20.8 8.33 (20:10) 3.61 (16:10) 0 0 0 0 0
28-08-2018 30.4 (16:10) 11.8 (00:00) 21.1 15 (19:00) 5.28 (13:40) 4.2 0 0 0 4.2
27-08-2018 32.5 (16:10) 8.8 (00:00) 20.7 6.94 (17:40) 3.33 (17:40) 0 0 0 0 0
26-08-2018 29.1 (17:00) 7.1 (00:00) 18.1 8.33 (16:10) 3.89 (17:10) 0 0 0 0 0
25-08-2018 28.4 (16:40) 8.1 (00:00) 18.3 8.06 (14:30) 3.89 (14:10) 0 0 0 0 0
24-08-2018 28.3 (17:00) 8.4 (00:00) 18.3 11.39 (15:50) 3.89 (15:50) 0 0 0 0 0
23-08-2018 28.5 (14:10) 12 (00:00) 20.3 9.17 (19:10) 4.17 (17:00) 1.2 0 0 0 1.2

Gráficas

Temp. máximas Temp. mínimas Temp. medias Precipitaciones Rachas de viento máximas Velocidades máximas media en intervalos de 10 minutos

Datos horarios

Fecha y hora oficial Temperatura (ºC) Velocidad del viento (km/h) Dirección del viento Racha (km/h) Dirección de racha Precipitación (mm) Presión (hPa) Tendencia (hPa) Humedad (%)
2018-09-21 23:00:00 17.2 3 Nordeste 8 Este 0 903.6 2.2 74
2018-09-21 22:00:00 18 2 Este 5 Sur 0 903 1.9 69
2018-09-21 21:00:00 20.2 0 Calma 5 Este 0 902 1.3 59
2018-09-21 20:00:00 23.4 3 Norte 13 Norte 0 901.4 0.9 46
2018-09-21 19:00:00 25.5 4 Nordeste 14 Nordeste 0 901.1 0.5 41
2018-09-21 18:00:00 26.3 3 Nordeste 13 Norte 0 900.7 -0.2 39
2018-09-21 17:00:00 26.8 5 Noroeste 17 Oeste 0 900.5 -1 36
2018-09-21 16:00:00 27.6 8 Noroeste 18 Norte 0 900.6 -1.3 35
2018-09-21 15:00:00 27.5 6 Noroeste 17 Norte 0 900.9 -1.2 36
2018-09-21 14:00:00 27.1 6 Noroeste 13 Oeste 0 901.5 -0.8 39
2018-09-21 13:00:00 25.4 5 Sudeste 11 Sudeste 0 901.9 0 44
2018-09-21 12:00:00 22.7 2 Oeste 7 Este 0 902.1 0.8 56
2018-09-21 11:00:00 18.4 2 Oeste 7 Sudoeste 0 902.3 1.3 68
2018-09-21 10:00:00 14.4 3 Sudoeste 6 Sudoeste 0 901.9 1.2 87
2018-09-21 09:00:00 11.1 3 Sur 4 Sur 0 901.3 0.8 96
2018-09-21 08:00:00 10.3 0 Calma 5 Sudeste 0 901 0.7 93
2018-09-21 07:00:00 10.7 2 Este 5 Sudeste 0 900.7 0.2 94
2018-09-21 06:00:00 11.1 0 Calma 4 Este 0 900.5 -0.2 92
2018-09-21 05:00:00 11.6 0 Calma 5 Este 0 900.3 -0.5 92
2018-09-21 04:00:00 12.1 0 Calma 3 Este 0 900.5 -0.5 91
2018-09-21 03:00:00 12.7 0 Calma 3 Este 0 900.7 -0.4 90
2018-09-21 02:00:00 13.5 0 Calma 5 Este 0 900.8 -0.4 88
2018-09-21 01:00:00 14.5 0 Calma 5 Sudeste 0 901 0.2 87
2018-09-21 00:00:00 15.7 0 Calma 6 Este 0 901.1 0.5 83
2018-09-20 23:00:00 17.3 4 Este 8 Este 0 901.2 1 78
2018-09-20 22:00:00 18.2 2 Nordeste 10 Norte 0 900.8 0.7 81
2018-09-20 21:00:00 19.3 5 Norte 13 Norte 0 900.6 0.5 76
2018-09-20 20:00:00 21.5 4 Sudeste 15 Este 0.4 900.2 -0.2 67
2018-09-20 19:00:00 23.4 8 Sudeste 27 Sudeste 0 900.1 -0.6 51
2018-09-20 18:00:00 26.1 7 Sudeste 19 Este 0 900.1 -1 45
2018-09-20 17:00:00 26.8 9 Sudoeste 23 Sudoeste 0 900.4 -1.3 40
2018-09-20 16:00:00 26.5 9 Sudoeste 22 Sudoeste 0 900.7 -1.7 43
2018-09-20 15:00:00 28.3 6 Sur 14 Este 0 901.1 -1.7 37
2018-09-20 14:00:00 27.1 4 Nordeste 13 Norte 0 901.7 -1.4 39
2018-09-20 13:00:00 25.5 3 Sudoeste 9 Norte 0 902.4 -0.7 53
2018-09-20 12:00:00 22.2 3 Oeste 6 Oeste 0 902.8 -0.4 59
2018-09-20 11:00:00 18 3 Sudoeste 5 Sur 0 903.1 0.1 76
2018-09-20 10:00:00 14.6 0 Calma 4 Sudoeste 0 903.1 0.2 88
2018-09-20 09:00:00 11.6 0 Calma 3 Sudeste 0 903.2 0.1 96
2018-09-20 08:00:00 11 0 Calma 4 Sudeste 0 903 -0.1 93
2018-09-20 07:00:00 11.6 2 Sudeste 4 Sudeste 0 902.9 -0.4 93
2018-09-20 06:00:00 11.8 0 Calma 4 Este 0 903.1 -0.3 93
2018-09-20 05:00:00 12.2 2 Este 4 Este 0 903.1 -0.5 91
2018-09-20 04:00:00 12.7 0 Calma 4 Sudeste 0 903.3 -0.4 91
2018-09-20 03:00:00 13.1 0 Calma 3 Sudeste 0 903.4 -0.3 91
2018-09-20 02:00:00 13.6 0 Calma 4 Sudeste 0 903.6 0.2 89
2018-09-20 01:00:00 14.1 3 Norte 6 Norte 0 903.7 0.8 89
2018-09-20 00:00:00 14.9 2 Este 5 Este 0 903.7 1.4 86
2018-09-19 23:00:00 16 0 Calma 6 Este 0 903.4 1.3 81
2018-09-19 22:00:00 17.3 4 Este 6 Sudeste 0 902.9 1.1 75
2018-09-19 21:00:00 19.7 4 Sudeste 9 Este 0 902.3 0.6 65
2018-09-19 20:00:00 22.9 0 Calma 8 Este 0 902.1 0.3 53
2018-09-19 19:00:00 25.7 3 Nordeste 17 Este 0 901.8 -0.4 41
2018-09-19 18:00:00 26.6 5 Noroeste 15 Este 0 901.7 -0.9 40
2018-09-19 17:00:00 26.8 6 Este 20 Nordeste 0 901.8 -1.2 38
2018-09-19 16:00:00 27.5 7 Nordeste 17 Norte 0 902.2 -1.1 36
2018-09-19 15:00:00 26.7 5 Norte 15 Sur 0 902.6 -0.8 44
2018-09-19 14:00:00 25.5 5 Sur 13 Sudeste 0 903 -0.4 51
2018-09-19 13:00:00 23.3 3 Sur 8 Sur 0 903.3 0.2 59
2018-09-19 12:00:00 19.2 2 Sur 6 Oeste 0 903.4 0.6 70
2018-09-19 11:00:00 15.3 5 Sudoeste 9 Oeste 0 903.4 1.1 87
2018-09-19 10:00:00 12.6 2 Sur 5 Sur 0 903.1 1.3 97
2018-09-19 09:00:00 10.5 3 Sudeste 5 Sudeste 0 902.8 1.2 98
2018-09-19 08:00:00 10.8 3 Este 4 Este 0 902.3 0.7 98
2018-09-19 07:00:00 11.3 2 Este 6 Sur 0 901.8 0.2 98
2018-09-19 06:00:00 11.5 3 Sudoeste 5 Oeste 0 901.6 -0.1 98
2018-09-19 05:00:00 11.8 3 Oeste 6 Oeste 0 901.6 -0.2 98
2018-09-19 04:00:00 11.4 0 Calma 6 Sudeste 0 901.6 0.1 95
2018-09-19 03:00:00 12 0 Calma 3 Este 0 901.7 0.2 95
2018-09-19 02:00:00 12.5 0 Calma 8 Sudeste 0 901.8 0.3 95
2018-09-19 01:00:00 13.2 2 Este 5 Sudeste 0 901.5 0.5 94
2018-09-19 00:00:00 14.1 3 Este 7 Este 0 901.5 1.5 93
2018-09-18 23:00:00 14.8 0 Calma 8 Oeste 0 901.5 1.8 93
2018-09-18 22:00:00 15 3 Este 10 Norte 0 901 1.1 92
2018-09-18 21:00:00 15.7 3 Este 6 Este 0 900 2 91
2018-09-18 20:00:00 16.8 5 Este 15 Este 0.2 899.7 1.7 85
2018-09-18 19:00:00 17.8 10 Norte 26 Oeste 1.6 899.9 2.2 85
2018-09-18 18:00:00 20.6 2 Sur 16 Sur 0.2 898 -0.3 78
2018-09-18 17:00:00 22.6 4 Este 21 Norte 0.6 898 -0.8 69
2018-09-18 16:00:00 26 5 Oeste 15 Oeste 0 897.7 -1.6 50
2018-09-18 15:00:00 23.7 5 Sudoeste 14 Oeste 0 898.3 -1.3 59
2018-09-18 14:00:00 22.6 4 Sudoeste 15 Sudoeste 0 898.8 -1 63
2018-09-18 13:00:00 20.4 8 Oeste 15 Sudoeste 0 899.3 -0.1 73
2018-09-18 12:00:00 19.6 10 Oeste 18 Sudoeste 0 899.6 0.7 78
2018-09-18 11:00:00 17 3 Oeste 7 Oeste 0 899.8 1.5 87
2018-09-18 10:00:00 14 0 Calma 5 Sudoeste 0 899.4 1.2 97
2018-09-18 09:00:00 12.3 4 Este 6 Sudeste 0 898.9 0.6 98
2018-09-18 08:00:00 11.8 3 Sudeste 7 Sudeste 0 898.3 0.1 96
2018-09-18 07:00:00 12.4 0 Calma 5 Sudeste 0 898.2 0 95
2018-09-18 06:00:00 12.9 0 Calma 4 Sudeste 0 898.3 0 94
2018-09-18 05:00:00 13.4 0 Calma 4 Sudeste 0 898.2 0 95
2018-09-18 04:00:00 13.7 2 Sur 4 Sur 0 898.2 -0.8 93
2018-09-18 03:00:00 14.3 2 Noroeste 5 Este 0 898.3 -1.4 93
2018-09-18 02:00:00 14.7 3 Este 6 Noroeste 0 898.2 -1.9 92
2018-09-18 01:00:00 14.9 0 Calma 14 Noroeste 0.6 899 0 92
2018-09-18 00:00:00 14.9 8 Norte 22 Sudoeste 2.8 899.7 0.7 92
2018-09-17 23:00:00 16.2 8 Oeste 20 Oeste 0.6 900.1 1.7 88
2018-09-17 22:00:00 16.3 8 Este 14 Este 0 899 0.2 88
2018-09-17 21:00:00 16.4 0 Calma 17 Este 0 899 0.9 90
2018-09-17 20:00:00 16.8 9 Este 21 Este 1.6 898.4 0.2 88
2018-09-17 19:00:00 19.2 5 Sudeste 20 Sur 0 898.8 0.4 73
2018-09-17 18:00:00 19.4 4 Sur 16 Este 0.6 898.1 -0.8 78
2018-09-17 17:00:00 20.3 10 Este 23 Este 0 898.2 -1.3 64
2018-09-17 16:00:00 23.1 10 Este 28 Este 0 898.4 -1.7 49
2018-09-17 15:00:00 25.7 9 Norte 20 Nordeste 0 898.9 -1.9 45
2018-09-17 14:00:00 26.4 4 Este 17 Este 0 899.5 -2 41
2018-09-17 13:00:00 26.3 5 Nordeste 15 Sudeste 0 900.1 -1.6 39
2018-09-17 12:00:00 23 3 Sur 8 Sur 0 900.8 -1.1 57
2018-09-17 11:00:00 18.3 2 Oeste 6 Sur 0 901.5 -0.3 71
2018-09-17 10:00:00 14 0 Calma 5 Sur 0 901.7 0.1 82
2018-09-17 09:00:00 10.3 0 Calma 3 Sudeste 0 901.9 0.3 94
2018-09-17 08:00:00 9.6 0 Calma 5 Este 0 901.8 0.1 92
2018-09-17 07:00:00 9.9 0 Calma 6 Este 0 901.6 -0.1 91
2018-09-17 06:00:00 10.4 0 Calma 4 Sudeste 0 901.6 -0.4 90
2018-09-17 05:00:00 10.9 0 Calma 4 Sudeste 0 901.7 -0.5 88
2018-09-17 04:00:00 11.6 2 Este 6 Sudeste 0 901.7 -0.7 87
2018-09-17 03:00:00 12.3 0 Calma 4 Nordeste 0 902 -0.3 85
2018-09-17 02:00:00 13.2 0 Calma 5 Sudeste 0 902.2 -0.1 83
2018-09-17 01:00:00 13.8 0 Calma 4 Sur 0 902.4 0.3 81
2018-09-17 00:00:00 14.9 2 Sur 8 Sudeste 0 902.3 0.8 75
2018-09-16 23:00:00 15.9 3 Sudeste 6 Este 0 902.3 1 72
2018-09-16 22:00:00 17.2 0 Calma 7 Sudeste 0 902.1 1 68
2018-09-16 21:00:00 19.2 3 Nordeste 7 Nordeste 0 901.5 0.7 59
2018-09-16 20:00:00 21.8 0 Calma 6 Sudeste 0 901.3 0.5 54
2018-09-16 19:00:00 24 2 Nordeste 14 Norte 0 901.1 0 45
2018-09-16 18:00:00 27.3 5 Norte 17 Este 0 900.8 -0.8 36
2018-09-16 17:00:00 27.4 6 Nordeste 19 Norte 0 900.8 -1.2 33
2018-09-16 16:00:00 27.8 5 Sudoeste 12 Sur 0 901.1 -1.4 39
2018-09-16 15:00:00 25.6 5 Noroeste 17 Norte 0 901.6 -1.3 40
2018-09-16 14:00:00 26.3 5 Sudeste 12 Sur 0 902 -1 47
2018-09-16 13:00:00 24.5 3 Norte 10 Este 0 902.5 -0.5 50
2018-09-16 12:00:00 21.9 4 Sudoeste 10 Sur 0 902.9 -0.4 62
2018-09-16 11:00:00 18.1 3 Oeste 7 Oeste 0 903 0.1 73
2018-09-16 10:00:00 13.8 3 Oeste 5 Oeste 0 903 0.4 85
2018-09-16 09:00:00 10.5 0 Calma 3 Sudeste 0 903.3 0.9 96
2018-09-16 08:00:00 9.5 0 Calma 5 Este 0 902.9 0.6 93
2018-09-16 07:00:00 9.9 3 Este 4 Este 0 902.6 0.4 94
2018-09-16 06:00:00 10.3 2 Este 4 Sudeste 0 902.4 -0.4 93
2018-09-16 05:00:00 10.8 2 Este 6 Sudeste 0 902.3 -0.9 90
2018-09-16 04:00:00 11.5 0 Calma 5 Sudeste 0 902.2 -1.1 90
2018-09-16 03:00:00 12.2 2 Este 4 Sudeste 0 902.8 -0.4 89
2018-09-16 02:00:00 13 2 Este 4 Sudeste 0 903.2 0.3 88
2018-09-16 01:00:00 13.7 0 Calma 3 Este 0 903.3 1 85
2018-09-16 00:00:00 14.8 2 Nordeste 4 Este 0 903.2 1.5 81
2018-09-15 23:00:00 16.2 2 Este 8 Este 0 902.9 1.9 77
2018-09-15 22:00:00 17.6 5 Este 10 Sudeste 0 902.3 1.8 70
2018-09-15 21:00:00 19.9 5 Este 13 Este 0 901.7 1.5 60
2018-09-15 20:00:00 22.4 8 Este 25 Este 0 901 0.7 51
2018-09-15 19:00:00 24.4 10 Este 26 Este 0 900.5 0 43
2018-09-15 18:00:00 26.5 6 Nordeste 21 Este 0 900.2 -0.9 41
2018-09-15 17:00:00 27.3 4 Nordeste 21 Este 0 900.3 -1.2 33
2018-09-15 16:00:00 26.4 7 Nordeste 22 Este 0 900.5 -1.5 35
2018-09-15 15:00:00 25.4 5 Norte 19 Norte 0 901.1 -1.2 47
2018-09-15 14:00:00 25.9 6 Norte 15 Norte 0 901.5 -1 45
2018-09-15 13:00:00 23.8 3 Noroeste 11 Oeste 0 902 -0.5 53
2018-09-15 12:00:00 20 6 Oeste 11 Sudoeste 0 902.3 0 71
2018-09-15 11:00:00 15.9 5 Oeste 8 Sudoeste 0 902.5 0.8 85
2018-09-15 10:00:00 13 3 Sudeste 4 Sudeste 0 902.5 0.9 92
2018-09-15 09:00:00 11.8 0 Calma 3 Sur 0 902.3 1.1 93
2018-09-15 08:00:00 11.6 0 Calma 5 Este 0 901.7 0.6 92
2018-09-15 07:00:00 11.8 0 Calma 5 Este 0 901.6 0.2 91
2018-09-15 06:00:00 12 2 Este 7 Este 0 901.2 -0.6 91
2018-09-15 05:00:00 12.2 2 Sudoeste 5 Sudeste 0 901.1 -0.9 89
2018-09-15 04:00:00 12.6 4 Este 8 Sudeste 0 901.4 -0.4 88
2018-09-15 03:00:00 13.3 2 Nordeste 6 Sudeste 0 901.8 0.2 85
2018-09-15 02:00:00 13.9 0 Calma 6 Norte 0 902 1 83
2018-09-15 01:00:00 14.9 3 Norte 5 Este 0 901.8 0.9 78
2018-09-15 00:00:00 16 3 Nordeste 8 Este 0 901.6 1 74
2018-09-14 23:00:00 17.4 0 Calma 7 Norte 0 901 1 69
2018-09-14 22:00:00 19 4 Este 10 Sudeste 0 900.9 1.3 63
2018-09-14 21:00:00 21 0 Calma 21 Nordeste 0 900.6 1.2 56
2018-09-14 20:00:00 23.5 6 Nordeste 20 Este 0 900 0.7 49
2018-09-14 19:00:00 26.3 4 Nordeste 19 Norte 0 899.6 -0.1 40
2018-09-14 18:00:00 27.9 6 Norte 20 Norte 0 899.4 -0.7 38
2018-09-14 17:00:00 28.6 7 Norte 23 Noroeste 0 899.3 -1.3 38
2018-09-14 16:00:00 28.3 5 Noroeste 15 Oeste 0 899.7 -1.4 37
2018-09-14 15:00:00 27.5 6 Noroeste 15 Oeste 0 900.1 -1.3 37
2018-09-14 14:00:00 25.9 5 Oeste 12 Oeste 0 900.6 -0.9 42
2018-09-14 13:00:00 24.6 5 Oeste 13 Norte 0 901.1 -0.2 53
2018-09-14 12:00:00 22.7 3 Sudoeste 7 Sur 0 901.4 0.3 59
2018-09-14 11:00:00 19 3 Sudeste 6 Sudeste 0 901.5 0.6 67
2018-09-14 10:00:00 15.1 3 Sudoeste 5 Sur 0 901.3 0.5 86
2018-09-14 09:00:00 11 2 Sudeste 3 Este 0 901.1 0.6 96
2018-09-14 08:00:00 10.2 0 Calma 3 Sudeste 0 900.9 0.1 93
2018-09-14 07:00:00 10.8 2 Este 5 Este 0 900.8 -0.2 93
2018-09-14 06:00:00 11.4 2 Sudeste 6 Sudeste 0 900.5 -0.6 93
2018-09-14 05:00:00 11.9 3 Este 6 Este 0 900.8 -0.7 92
2018-09-14 04:00:00 12.4 0 Calma 6 Este 0 901 -0.5 91
2018-09-14 03:00:00 13.1 0 Calma 7 Este 0 901.1 -0.2 89
2018-09-14 02:00:00 13.7 3 Este 6 Este 0 901.5 0.4 89
2018-09-14 01:00:00 14.7 2 Este 4 Sudeste 0 901.5 0.7 86
2018-09-14 00:00:00 15.8 0 Calma 6 Sudeste 0 901.3 1.2 83
2018-09-13 23:00:00 17 3 Sudeste 6 Sudeste 0 901.1 1.4 77
2018-09-13 22:00:00 18.3 0 Calma 6 Este 0 900.8 0.9 70
2018-09-13 21:00:00 20.4 2 Este 8 Este 0 900.1 0.2 59
2018-09-13 20:00:00 24 0 Calma 8 Este 0 899.7 -0.5 42
2018-09-13 19:00:00 27 5 Norte 17 Este 0 899.9 -0.7 32
2018-09-13 18:00:00 28 4 Nordeste 19 Este 0 899.9 -1.2 36
2018-09-13 17:00:00 28 5 Nordeste 21 Este 0 900.2 -1.4 32
2018-09-13 16:00:00 28 6 Nordeste 22 Este 0 900.6 -1.2 41
2018-09-13 15:00:00 27.3 7 Nordeste 19 Noroeste 0 901.1 -1.2 39
2018-09-13 14:00:00 26.8 5 Norte 18 Norte 0 901.6 -0.8 40
2018-09-13 13:00:00 25.2 4 Este 10 Este 0 901.8 -0.5 46
2018-09-13 12:00:00 22.4 2 Noroeste 5 Noroeste 0 902.3 -0.1 56
2018-09-13 11:00:00 18.3 3 Este 7 Nordeste 0 902.4 0.3 73
2018-09-13 10:00:00 14.6 3 Sudeste 5 Sudeste 0 902.3 0.3 86
2018-09-13 09:00:00 11.3 2 Sur 6 Sudeste 0 902.4 0.3 97
2018-09-13 08:00:00 10.3 0 Calma 5 Sudeste 0 902.1 -0.1 95
2018-09-13 07:00:00 10.6 0 Calma 6 Sudeste 0 902 -0.4 93
2018-09-13 06:00:00 11.1 0 Calma 5 Sudeste 0 902.1 -0.7 94
2018-09-13 05:00:00 11.7 0 Calma 4 Sudeste 0 902.2 -1.1 93
2018-09-13 04:00:00 12.4 0 Calma 6 Sudeste 0 902.4 -1.1 92
2018-09-13 03:00:00 13.2 2 Este 6 Sudeste 0 902.8 -0.9 92
2018-09-13 02:00:00 14 0 Calma 5 Sudeste 0 903.3 -0.3 90
2018-09-13 01:00:00 15.2 0 Calma 4 Sudeste 0 903.5 0.4 88
2018-09-13 00:00:00 16.1 2 Sur 5 Este 0 903.7 1.1 86
2018-09-12 23:00:00 16.7 2 Sudeste 7 Nordeste 0 903.6 1.3 84
2018-09-12 22:00:00 17.9 3 Sudeste 5 Este 0 903.1 0.9 80
2018-09-12 21:00:00 19.9 3 Norte 7 Nordeste 0 902.6 0.7 74
2018-09-12 20:00:00 21.2 4 Norte 21 Noroeste 0 902.3 0.2 65
2018-09-12 19:00:00 23.2 8 Noroeste 22 Noroeste 0 902.2 -0.3 51
2018-09-12 18:00:00 24.2 6 Noroeste 21 Oeste 0 901.9 -1.4 43
2018-09-12 17:00:00 25.9 8 Noroeste 23 Noroeste 0 902.1 -1.9 43
2018-09-12 16:00:00 25.1 9 Noroeste 25 Oeste 0 902.5 -1.9 46
2018-09-12 15:00:00 24.6 9 Oeste 23 Oeste 0 903.3 -1.3 47
2018-09-12 14:00:00 23 9 Oeste 21 Noroeste 0 904 -0.6 54
2018-09-12 13:00:00 21.9 6 Oeste 22 Oeste 0 904.4 0.2 61
2018-09-12 12:00:00 20.6 6 Noroeste 16 Oeste 0 904.6 0.4 66
2018-09-12 11:00:00 18.2 5 Noroeste 9 Oeste 0 904.6 0.7 80
2018-09-12 10:00:00 15.4 0 Calma 5 Oeste 0 904.2 0.6 90
2018-09-12 09:00:00 13.1 2 Sur 4 Este 0 904.2 -0.3 97
2018-09-12 08:00:00 12.8 0 Calma 8 Este 0 903.9 0.5 94
2018-09-12 07:00:00 13.6 3 Este 12 Nordeste 1.4 903.6 -0.2 95
2018-09-12 06:00:00 13.8 4 Oeste 27 Oeste 5.8 904.5 0.5 94
2018-09-12 05:00:00 13.9 2 Este 6 Sudeste 0 903.4 -1.3 96
2018-09-12 04:00:00 13.6 2 Sudeste 6 Sudeste 0 903.8 -0.6 95
2018-09-12 03:00:00 13.9 0 Calma 6 Sudeste 0 904 -0.3 94
2018-09-12 02:00:00 14.4 0 Calma 5 Nordeste 0 904.7 0 93
2018-09-12 01:00:00 15.1 0 Calma 12 Sudeste 0 904.4 0 92
2018-09-12 00:00:00 15.8 5 Sur 12 Sudeste 0.2 904.3 0 92
2018-09-11 23:00:00 15.8 3 Este 11 Sudeste 0 904.7 0.8 91
2018-09-11 22:00:00 17 3 Sudeste 17 Este 1 904.4 1 86
2018-09-11 21:00:00 18.5 3 Este 9 Norte 0.2 904.3 0.5 82
2018-09-11 20:00:00 19.7 5 Este 18 Este 0 903.9 -0.6 70
2018-09-11 19:00:00 20.7 6 Sudeste 14 Sudeste 0 903.4 -1.1 62
2018-09-11 18:00:00 19.9 7 Este 14 Este 0 903.8 -0.9 65
2018-09-11 17:00:00 19.9 3 Este 17 Este 0 904.5 -0.9 68
2018-09-11 16:00:00 21 5 Este 19 Este 0 904.5 -1.2 60
2018-09-11 15:00:00 21 6 Este 24 Sudeste 0 904.7 -1.1 62
2018-09-11 14:00:00 20.9 13 Este 27 Este 0 905.4 -0.4 61
2018-09-11 13:00:00 21 5 Nordeste 19 Este 0 905.7 -0.1 70
2018-09-11 12:00:00 18.5 6 Norte 17 Norte 0 905.8 0.1 79
2018-09-11 11:00:00 15.6 2 Sur 8 Sur 0 905.8 0.4 86
2018-09-11 10:00:00 12.1 2 Sudoeste 5 Sur 0 905.8 0.5 97
2018-09-11 09:00:00 10.2 0 Calma 4 Sudeste 0 905.7 0.6 98
2018-09-11 08:00:00 9.5 0 Calma 5 Sudeste 0 905.4 0.1 94
2018-09-11 07:00:00 10 0 Calma 3 Sudeste 0 905.3 0 93
2018-09-11 06:00:00 10.6 2 Nordeste 4 Sudeste 0 905.1 -0.2 93
2018-09-11 05:00:00 11.2 2 Este 4 Este 0 905.3 -0.1 94
2018-09-11 04:00:00 11.8 0 Calma 5 Sudeste 0 905.3 -0.2 93
2018-09-11 03:00:00 12.4 0 Calma 5 Este 0 905.3 -0.2 92
2018-09-11 02:00:00 13.1 3 Sudeste 5 Sudeste 0 905.4 0 92
2018-09-11 01:00:00 13.9 0 Calma 5 Norte 0 905.5 0.5 89
2018-09-11 00:00:00 15 2 Sudeste 6 Este 0 905.5 1 85
2018-09-10 23:00:00 16.5 3 Este 10 Este 0 905.4 1.4 81
2018-09-10 22:00:00 17.1 2 Nordeste 6 Norte 0 905 1 80
2018-09-10 21:00:00 18.8 0 Calma 8 Este 0 904.5 0.9 72
2018-09-10 20:00:00 20.8 3 Nordeste 18 Este 0 904 0.1 64
2018-09-10 19:00:00 21.9 14 Este 29 Este 0 904 -0.3 56
2018-09-10 18:00:00 24 4 Nordeste 22 Este 0 903.6 -1.2 54
2018-09-10 17:00:00 23.6 7 Nordeste 19 Este 0 903.9 -1.4 55
2018-09-10 16:00:00 23.1 6 Nordeste 19 Este 0 904.3 -1.2 58
2018-09-10 15:00:00 22.3 6 Norte 21 Norte 0 904.8 -0.5 63
2018-09-10 14:00:00 18.7 6 Norte 15 Norte 0 905.3 0.3 80
2018-09-10 13:00:00 17.5 9 Este 15 Nordeste 0 905.5 0.9 79
2018-09-10 12:00:00 17.3 8 Este 17 Este 0 905.3 1.1 80
2018-09-10 11:00:00 16.8 5 Este 16 Este 0 905 1.1 84
2018-09-10 10:00:00 15.4 0 Calma 5 Oeste 0 904.6 1.3 92
2018-09-10 09:00:00 12.8 2 Sudeste 6 Sudeste 0 904.2 1.1 96
2018-09-10 08:00:00 12 2 Nordeste 5 Sudeste 0 903.9 0.7 96
2018-09-10 07:00:00 11.8 0 Calma 4 Sur 0 903.3 0.2 94
2018-09-10 06:00:00 12 2 Oeste 5 Sudeste 0 903.1 0.1 95
2018-09-10 05:00:00 11.8 0 Calma 8 Este 0 903.2 0 94
2018-09-10 04:00:00 12.2 3 Sudeste 7 Sur 0 903.1 -0.3 95
2018-09-10 03:00:00 12.4 2 Este 6 Norte 0 903 0.1 93
2018-09-10 02:00:00 12.9 2 Oeste 12 Sudeste 0 903.2 0.4 91
2018-09-10 01:00:00 13.3 3 Este 15 Nordeste 0 903.4 -0.4 89
2018-09-10 00:00:00 13.4 3 Nordeste 21 Norte 0 902.9 -0.4 88
2018-09-09 23:00:00 14.1 10 Este 23 Norte 2.8 902.8 1.7 83
2018-09-09 22:00:00 13.8 9 Norte 27 Noroeste 11 903.8 3.4 92
2018-09-09 21:00:00 15.7 15 Norte 35 Norte 5.8 903.3 2.6 78
2018-09-09 20:00:00 18.5 4 Sudoeste 24 Este 0 901.1 1.2 65
2018-09-09 19:00:00 20.2 15 Este 31 Este 0.2 900.4 0.2 50
2018-09-09 18:00:00 18.9 12 Noroeste 27 Norte 0 900.7 0.1 69
2018-09-09 17:00:00 22.8 5 Este 22 Sudeste 0 899.9 -1.2 46
2018-09-09 16:00:00 24.5 5 Nordeste 16 Este 0 900.2 -1.5 41
2018-09-09 15:00:00 25.2 4 Sudeste 15 Este 0 900.6 -1.3 48
2018-09-09 14:00:00 24.4 4 Sur 16 Sur 0 901.1 -1 44
2018-09-09 13:00:00 22.6 4 Sur 12 Sudeste 0 901.7 -0.1 51
2018-09-09 12:00:00 21.6 5 Sur 12 Sudeste 0 901.9 0.1 61
2018-09-09 11:00:00 19.8 3 Sur 9 Este 0 902.1 0.5 66
2018-09-09 10:00:00 16.5 4 Sudeste 7 Este 0 901.8 0.8 80
2018-09-09 09:00:00 13.5 0 Calma 9 Nordeste 0 901.8 0.7 89
2018-09-09 08:00:00 13.1 2 Este 6 Sudeste 0 901.6 1 90
2018-09-09 07:00:00 13.1 4 Sudeste 7 Sudeste 0 901 0.4 88
2018-09-09 06:00:00 13.7 2 Sur 5 Sudeste 0 901.1 0.4 87
2018-09-09 05:00:00 14.6 4 Este 7 Norte 0 900.6 -0.4 84
2018-09-09 04:00:00 15.9 2 Sur 8 Oeste 0 900.6 -0.3 79
2018-09-09 03:00:00 16.3 3 Oeste 7 Este 0 900.7 0.2 79
2018-09-09 02:00:00 16.6 3 Sudeste 6 Oeste 0 901 0.8 79
2018-09-09 01:00:00 16.4 2 Nordeste 5 Sudoeste 0 900.9 0.8 79
2018-09-09 00:00:00 16.6 0 Calma 7 Sudeste 0 900.5 1.2 76
2018-09-08 23:00:00 17.5 0 Calma 6 Este 0 900.2 1.3 71
2018-09-08 22:00:00 18.8 0 Calma 8 Sur 0 900.1 1.1 64
2018-09-08 21:00:00 20.2 3 Sudeste 16 Sur 0 899.3 0.6 55
2018-09-08 20:00:00 21.4 9 Sur 25 Sur 0 898.9 0.2 51
2018-09-08 19:00:00 23.3 13 Sur 24 Sur 0 899 0.2 48
2018-09-08 18:00:00 23.3 10 Sur 24 Sur 0 898.7 -0.7 49
2018-09-08 17:00:00 24.5 9 Sudoeste 24 Sur 0 898.7 -0.9 44
2018-09-08 16:00:00 24.6 8 Sur 21 Sur 0 898.8 -1.5 46
2018-09-08 15:00:00 23.4 7 Sudoeste 22 Sur 0 899.4 -0.7 54
2018-09-08 14:00:00 23 5 Noroeste 12 Norte 0 899.6 -0.2 56
2018-09-08 13:00:00 20.3 5 Oeste 10 Oeste 0 900.3 0.7 66
2018-09-08 12:00:00 17.3 3 Oeste 10 Oeste 0 900.1 0.4 79
2018-09-08 11:00:00 15.2 2 Noroeste 7 Oeste 0 899.8 0.8 91
2018-09-08 10:00:00 12.8 6 Oeste 10 Oeste 0 899.6 0.7 97
2018-09-08 09:00:00 11.7 0 Calma 5 Sur 0 899.7 0.6 98
2018-09-08 08:00:00 11.1 3 Sur 5 Sur 0 899 -0.2 96
2018-09-08 07:00:00 11.4 2 Nordeste 5 Este 0 898.9 -0.5 95
2018-09-08 06:00:00 11.9 0 Calma 5 Este 0 899.1 -0.5 94
2018-09-08 05:00:00 12.5 3 Este 5 Sudeste 0 899.2 -0.2 94
2018-09-08 04:00:00 13.1 0 Calma 6 Este 0 899.4 0.1 93
2018-09-08 03:00:00 14 0 Calma 7 Sudoeste 0 899.6 0.6 92
2018-09-08 02:00:00 14.7 3 Sudoeste 9 Noroeste 0 899.4 0.6 92
2018-09-08 01:00:00 15.3 0 Calma 12 Oeste 0 899.3 0.7 90
2018-09-08 00:00:00 16.1 0 Calma 4 Sur 0 899 1 90
2018-09-07 23:00:00 16.3 0 Calma 10 Este 0 898.8 1 87
2018-09-07 22:00:00 16.7 5 Este 9 Este 0 898.6 1.5 81
2018-09-07 21:00:00 17.3 2 Nordeste 12 Sur 0 898 0.9 81
2018-09-07 20:00:00 18.2 4 Este 12 Este 0 897.8 0.1 81
2018-09-07 19:00:00 18.8 2 Nordeste 12 Este 0 897.1 0.5 83
2018-09-07 18:00:00 17.5 3 Este 40 Sudeste 13.6 897.1 0.2 93
2018-09-07 17:00:00 18.7 33 Sur 67 Sur 0.8 897.7 0.3 66
2018-09-07 16:00:00 24.6 5 Nordeste 22 Este 0 896.6 -1.4 45
2018-09-07 15:00:00 24.8 6 Nordeste 15 Este 0 896.9 -1.7 42
2018-09-07 14:00:00 24 7 Nordeste 17 Norte 0 897.4 -1.2 51
2018-09-07 13:00:00 22.8 11 Norte 22 Noroeste 0 898 -0.6 57
2018-09-07 12:00:00 20.1 6 Sudeste 15 Este 0 898.6 -0.1 62
2018-09-07 11:00:00 17.6 7 Sudeste 16 Sudeste 0 898.6 0.3 67
2018-09-07 10:00:00 15.1 7 Este 14 Este 0 898.6 0.4 75
2018-09-07 09:00:00 11.3 4 Este 8 Este 0 898.7 0.7 91
2018-09-07 08:00:00 9.3 0 Calma 5 Sudeste 0 898.3 0.3 94
2018-09-07 07:00:00 9.4 2 Sudeste 6 Nordeste 0 898.2 0.2 93
2018-09-07 06:00:00 9.7 0 Calma 6 Sudeste 0 898 -0.2 92
2018-09-07 05:00:00 10.2 2 Nordeste 6 Sudeste 0 898 -0.5 91
2018-09-07 04:00:00 11.1 3 Este 7 Sur 0 898 -0.5 89
2018-09-07 03:00:00 12.1 4 Este 9 Este 0 898.2 -0.1 89
2018-09-07 02:00:00 12.4 4 Este 9 Este 0 898.5 0.4 89
2018-09-07 01:00:00 12.8 0 Calma 7 Sudeste 0 898.5 0.8 86
2018-09-07 00:00:00 13.8 2 Este 8 Nordeste 0 898.3 1 86
2018-09-06 23:00:00 15.1 3 Este 8 Este 0 898.1 1.3 82
2018-09-06 22:00:00 16.1 2 Nordeste 10 Este 0 897.7 1.2 78
2018-09-06 21:00:00 16.9 3 Nordeste 12 Nordeste 0 897.3 1.2 74
2018-09-06 20:00:00 18 5 Norte 20 Norte 0 896.8 1.1 69
2018-09-06 19:00:00 17.8 4 Oeste 12 Norte 0 896.5 0.6 70
2018-09-06 18:00:00 17.8 8 Norte 30 Norte 0 896.1 0.1 70
2018-09-06 17:00:00 22.7 5 Nordeste 23 Nordeste 0 895.7 -0.3 48
2018-09-06 16:00:00 20.4 4 Nordeste 21 Este 0 895.9 -0.4 66
2018-09-06 15:00:00 21.7 4 Este 13 Este 0 896 -0.6 53
2018-09-06 14:00:00 22.8 5 Norte 18 Norte 0 896 -0.5 50
2018-09-06 13:00:00 21.2 8 Norte 19 Nordeste 0 896.3 -0.3 59
2018-09-06 12:00:00 22 6 Norte 19 Norte 0 896.6 0 59
2018-09-06 11:00:00 17.7 4 Sur 7 Sur 0 896.5 0.2 72
2018-09-06 10:00:00 14.8 4 Sur 8 Sur 0 896.6 0.6 85
2018-09-06 09:00:00 11.9 3 Sur 5 Sur 0 896.6 0.8 96
2018-09-06 08:00:00 10.3 0 Calma 7 Sudeste 0 896.3 0.6 91
2018-09-06 07:00:00 10.9 0 Calma 6 Sudeste 0 896 0 90
2018-09-06 06:00:00 11.6 3 Este 6 Este 0 895.8 -0.3 91
2018-09-06 05:00:00 12.2 0 Calma 7 Sudeste 0 895.7 -0.7 88
2018-09-06 04:00:00 13.2 0 Calma 4 Noroeste 0 896 -0.6 86
2018-09-06 03:00:00 14.3 4 Este 6 Este 0 896.1 -0.6 85
2018-09-06 02:00:00 15.3 0 Calma 9 Sudeste 0 896.4 0.2 81
2018-09-06 01:00:00 15.5 2 Este 9 Este 0 896.6 1 80
2018-09-06 00:00:00 16.4 3 Sudeste 24 Norte 0 896.7 1.8 78
2018-09-05 23:00:00 16.8 8 Norte 21 Norte 0 896.2 1.5 67
2018-09-05 22:00:00 18.4 0 Calma 10 Oeste 0 895.6 1.1 50
2018-09-05 21:00:00 20.8 6 Oeste 20 Sudoeste 0 894.9 0.3 41
2018-09-05 20:00:00 22.4 10 Oeste 27 Sudoeste 0 894.7 0 36
2018-09-05 19:00:00 24.4 10 Sudoeste 34 Oeste 0 894.5 -0.4 31
2018-09-05 18:00:00 24.8 17 Oeste 31 Sudoeste 0 894.6 -0.8 31
2018-09-05 17:00:00 25.1 10 Sudoeste 30 Oeste 0 894.7 -1.3 34
2018-09-05 16:00:00 25.6 13 Sudoeste 34 Sudoeste 0 894.9 -1.6 36
2018-09-05 15:00:00 25.2 14 Sudoeste 43 Oeste 0 895.4 -1.3 38
2018-09-05 14:00:00 24.7 12 Sudoeste 30 Oeste 0 896 -0.8 43
2018-09-05 13:00:00 23.7 10 Sudoeste 24 Sur 0 896.5 -0.5 45
2018-09-05 12:00:00 23 10 Sudoeste 20 Sudoeste 0 896.7 -0.3 47
2018-09-05 11:00:00 19.9 3 Oeste 6 Sudoeste 0 896.8 0 66
2018-09-05 10:00:00 15.2 2 Sudoeste 4 Oeste 0 897 0.7 84
2018-09-05 09:00:00 11.8 0 Calma 4 Sur 0 897 0.8 92
2018-09-05 08:00:00 10.4 0 Calma 5 Sudeste 0 896.8 0.7 91
2018-09-05 07:00:00 10.9 2 Este 5 Este 0 896.3 0.3 90
2018-09-05 06:00:00 11.6 2 Sudeste 7 Sudeste 0 896.2 0.2 89
2018-09-05 05:00:00 12.3 0 Calma 5 Nordeste 0 896.1 0 88
2018-09-05 04:00:00 12.9 0 Calma 9 Sur 0 896 0 86
2018-09-05 03:00:00 13.3 2 Norte 8 Sur 0 896 0 85
2018-09-05 02:00:00 13.7 0 Calma 6 Sur 0 896.1 0.2 84
2018-09-05 01:00:00 14.4 0 Calma 4 Sudeste 0 896 0.7 81
2018-09-05 00:00:00 15.2 3 Este 6 Este 0 896 1.3 76
2018-09-04 23:00:00 16.6 3 Este 6 Este 0 895.9 1.4 70
2018-09-04 22:00:00 18.7 0 Calma 8 Este 0 895.3 1.3 65
2018-09-04 21:00:00 20.7 4 Sur 14 Este 0 894.7 1.2 57
2018-09-04 20:00:00 22.7 5 Este 23 Nordeste 0 894.5 1 48
2018-09-04 19:00:00 24.7 6 Nordeste 30 Norte 0 894 0.3 41
2018-09-04 18:00:00 26.3 12 Norte 28 Norte 0 893.5 -0.4 41
2018-09-04 17:00:00 28.3 7 Sur 21 Oeste 0 893.5 -0.7 25
2018-09-04 16:00:00 28.4 7 Sudoeste 25 Sur 0 893.7 -1 31
2018-09-04 15:00:00 27.7 8 Sudoeste 18 Oeste 0 893.9 -1.4 33
2018-09-04 14:00:00 27.3 4 Este 18 Sur 0 894.2 -1.4 40
2018-09-04 13:00:00 25.9 8 Sudeste 15 Sur 0 894.7 -1.1 40
2018-09-04 12:00:00 23.8 3 Sudoeste 9 Sur 0 895.3 -0.5 50
2018-09-04 11:00:00 21 4 Sur 6 Sudeste 0 895.6 0.1 60
2018-09-04 10:00:00 17.3 2 Sur 5 Sur 0 895.8 0.5 72
2018-09-04 09:00:00 13.7 3 Sudeste 5 Este 0 895.8 0.6 83
2018-09-04 08:00:00 12.3 2 Sudeste 5 Sudeste 0 895.5 0.2 86
2018-09-04 07:00:00 12.4 3 Sudeste 5 Este 0 895.3 0.1 85
2018-09-04 06:00:00 12.9 0 Calma 4 Este 0 895.2 -0.2 82
2018-09-04 05:00:00 13.8 2 Sudeste 8 Este 0 895.3 0.1 78
2018-09-04 04:00:00 15 0 Calma 10 Nordeste 0 895.2 0.3 72
2018-09-04 03:00:00 16.2 2 Sur 12 Norte 0 895.4 0.6 67
2018-09-04 02:00:00 16.6 3 Este 8 Norte 0 895.2 0.1 66
2018-09-04 01:00:00 17.8 4 Norte 10 Norte 0 894.9 -0.1 61
2018-09-04 00:00:00 17.5 3 Nordeste 6 Norte 0 894.8 0.8 64
2018-09-03 23:00:00 19 4 Este 13 Norte 0 895.1 1.6 60
2018-09-03 22:00:00 21.4 10 Sur 37 Sur 0 895 2 48
2018-09-03 21:00:00 23.3 22 Sur 40 Sur 0 894 1.1 42
2018-09-03 20:00:00 24.9 19 Sur 38 Sur 0 893.5 0.1 36
2018-09-03 19:00:00 26.8 8 Sudoeste 26 Sudoeste 0 893 -1.2 25
2018-09-03 18:00:00 29.2 11 Sudoeste 26 Sudoeste 0 892.9 -1.5 21
2018-09-03 17:00:00 28.8 13 Sur 35 Sudoeste 0 893.4 -1.4 29
2018-09-03 16:00:00 29.6 15 Sudoeste 35 Sudoeste 0 894.2 -1.8 30
2018-09-03 15:00:00 29.2 12 Sudoeste 28 Sur 0 894.4 -2.2 30
2018-09-03 14:00:00 28.4 12 Sudeste 24 Este 0 894.8 -1.9 34
2018-09-03 13:00:00 26 7 Sudeste 16 Este 0 896 -0.9 44
2018-09-03 12:00:00 23 8 Sudeste 14 Sudeste 0 896.6 0.2 59
2018-09-03 11:00:00 20.7 5 Este 13 Noroeste 0 896.7 0.1 73
2018-09-03 10:00:00 20 3 Sudoeste 10 Sur 0 896.9 0.9 80
2018-09-03 09:00:00 17.5 5 Este 12 Este 0 896.4 -0.1 87
2018-09-03 08:00:00 17.1 3 Este 16 Norte 0 896.6 1.1 89
2018-09-03 07:00:00 17.5 6 Norte 17 Nordeste 3.4 896 -0.7 87
2018-09-03 06:00:00 18 4 Norte 14 Sur 0 896.5 -0.2 77
2018-09-03 05:00:00 18.7 4 Este 12 Este 0 895.5 -1.6 74
2018-09-03 04:00:00 18.2 6 Norte 32 Noroeste 0 896.7 -0.6 77
2018-09-03 03:00:00 16.5 0 Calma 8 Sudeste 0 896.7 -1 74
2018-09-03 02:00:00 17.2 2 Nordeste 8 Sudeste 0 897.1 -0.4 71
2018-09-03 01:00:00 18.6 4 Este 6 Este 0 897.3 0.2 65
2018-09-03 00:00:00 20.5 2 Sudeste 6 Nordeste 0 897.7 1.2 59
2018-09-02 23:00:00 22 4 Norte 16 Nordeste 0 897.5 1.3 52
2018-09-02 22:00:00 23.5 6 Norte 22 Norte 0 897.1 0.9 46
2018-09-02 21:00:00 25.1 2 Nordeste 13 Norte 0 896.5 0.3 49
2018-09-02 20:00:00 27.6 0 Calma 15 Nordeste 0 896.2 -0.5 40
2018-09-02 19:00:00 29.3 8 Norte 25 Sudoeste 0 896.2 -0.7 34
2018-09-02 18:00:00 30.6 5 Noroeste 27 Oeste 0 896.2 -1.3 31
2018-09-02 17:00:00 29.8 9 Oeste 28 Oeste 0 896.7 -1.2 29
2018-09-02 16:00:00 30.5 13 Sudoeste 27 Oeste 0 896.9 -1.7 27
2018-09-02 15:00:00 29.3 12 Oeste 28 Sudoeste 0 897.5 -1.6 34
2018-09-02 14:00:00 29.1 12 Oeste 23 Sudoeste 0 897.9 -1.6 34
2018-09-02 13:00:00 27.9 6 Noroeste 16 Noroeste 0 898.6 -1.1 45
2018-09-02 12:00:00 25.1 5 Sudoeste 11 Sur 0 899.1 -0.7 53
2018-09-02 11:00:00 21 3 Sudoeste 5 Sudoeste 0 899.5 0 67
2018-09-02 10:00:00 17.6 2 Oeste 4 Este 0 899.7 0.3 73
2018-09-02 09:00:00 13.8 2 Este 5 Sudeste 0 899.8 0.2 84
2018-09-02 08:00:00 12.1 0 Calma 5 Este 0 899.5 -0.4 85
2018-09-02 07:00:00 12.3 0 Calma 4 Sudeste 0 899.4 -0.6 84
2018-09-02 06:00:00 12.7 3 Este 6 Sudeste 0 899.6 -0.7 81
2018-09-02 05:00:00 13.2 3 Sudeste 5 Sudeste 0 899.9 -0.8 79
2018-09-02 04:00:00 13.9 0 Calma 4 Sudeste 0 900 -0.6 78
2018-09-02 03:00:00 14.4 0 Calma 4 Norte 0 900.3 -0.2 74
2018-09-02 02:00:00 15.2 2 Este 6 Sudeste 0 900.7 0.4 71
2018-09-02 01:00:00 16.1 2 Este 6 Sudeste 0 900.6 0.6 68
2018-09-02 00:00:00 17.5 3 Sudeste 5 Sudeste 0 900.5 1.2 62
2018-09-01 23:00:00 19.1 2 Este 9 Este 0 900.3 1.3 56
2018-09-01 22:00:00 20.8 3 Este 10 Sudeste 0 900 1.1 51
2018-09-01 21:00:00 23.3 0 Calma 10 Este 0 899.3 0.5 44
2018-09-01 20:00:00 26 4 Nordeste 16 Este 0 899 0 36
2018-09-01 19:00:00 28 3 Nordeste 16 Nordeste 0 898.9 -0.6 33
2018-09-01 18:00:00 29.9 5 Nordeste 21 Norte 0 898.8 -1.3 29
2018-09-01 17:00:00 30.3 7 Nordeste 19 Norte 0 899 -1.6 30
2018-09-01 16:00:00 29.7 8 Norte 18 Norte 0 899.5 -1.5 35
2018-09-01 15:00:00 28.5 4 Nordeste 14 Este 0 900.1 -1.3 36
2018-09-01 14:00:00 27.6 5 Norte 18 Norte 0 900.6 -0.9 43
2018-09-01 13:00:00 26.5 8 Norte 17 Norte 0 901 -0.5 50
2018-09-01 12:00:00 24 5 Sudoeste 10 Sur 0 901.4 -0.1 57
2018-09-01 11:00:00 21.2 3 Sudeste 7 Sudeste 0 901.5 0.1 60
2018-09-01 10:00:00 16.5 2 Sur 5 Sur 0 901.5 0.4 80
2018-09-01 09:00:00 13 2 Sur 4 Sur 0 901.5 0.4 91
2018-09-01 08:00:00 11.3 0 Calma 4 Este 0 901.4 0 91
2018-09-01 07:00:00 11.6 3 Este 5 Este 0 901.1 -0.4 90
2018-09-01 06:00:00 12 0 Calma 5 Sudeste 0 901.1 -0.4 89
2018-09-01 05:00:00 12.5 3 Sudeste 5 Sudeste 0 901.4 -0.3 88
2018-09-01 04:00:00 13.1 0 Calma 4 Este 0 901.5 -0.1 85
2018-09-01 03:00:00 13.8 2 Este 6 Este 0 901.5 0.1 83
2018-09-01 02:00:00 14.5 2 Este 6 Sudeste 0 901.7 0.5 80
2018-09-01 01:00:00 15.7 2 Sudeste 5 Sudeste 0 901.6 0.8 75
2018-09-01 00:00:00 17.3 0 Calma 10 Este 0 901.4 1.2 69
2018-08-31 23:00:00 18.2 2 Nordeste 8 Sudeste 0 901.2 1.6 66
2018-08-31 22:00:00 20.1 3 Este 9 Nordeste 0 900.8 1.5 56
2018-08-31 21:00:00 21.9 3 Nordeste 18 Este 0 900.2 1.1 49
2018-08-31 20:00:00 24.4 12 Este 28 Este 0 899.6 0.2 42
2018-08-31 19:00:00 26.2 6 Este 23 Este 0 899.3 -0.2 41
2018-08-31 18:00:00 28.6 8 Norte 24 Nordeste 0 899.1 -0.6 39
2018-08-31 17:00:00 29 11 Norte 22 Norte 0 899.4 -0.5 39
2018-08-31 16:00:00 29.4 12 Norte 26 Nordeste 0 899.5 -0.9 42
2018-08-31 15:00:00 28.9 10 Norte -- -- -- 899.7 -1 44
2018-08-31 14:00:00 26.9 7 Oeste 15 Oeste 0 899.9 -1.2 44
2018-08-31 13:00:00 25.3 5 Sudoeste 14 Noroeste 0 900.4 -0.6 56
2018-08-31 12:00:00 23.3 4 Sudoeste 8 Oeste 0 900.7 -0.3 69
2018-08-31 11:00:00 19.9 3 Sur 5 Sur 0 901.1 0.4 80
2018-08-31 10:00:00 16.7 3 Sudoeste 7 Sur 0 901 0.6 88
2018-08-31 09:00:00 14.2 3 Sudeste 5 Este 0 901 0.6 95
2018-08-31 08:00:00 12.6 0 Calma 4 Sur 0 900.7 0.2 95
2018-08-31 07:00:00 12.9 2 Este 4 Este 0 900.4 -0.3 94
2018-08-31 06:00:00 13.3 2 Sudeste 5 Sudeste 0 900.4 -0.7 94
2018-08-31 05:00:00 13.8 2 Este 3 Este 0 900.5 -0.7 93
2018-08-31 04:00:00 14.3 0 Calma 4 Sudeste 0 900.7 -0.6 92
2018-08-31 03:00:00 14.9 2 Sudeste 6 Este 0 901.1 -0.4 91
2018-08-31 02:00:00 15.7 3 Este 5 Este 0 901.2 -0.1 92
2018-08-31 01:00:00 16.4 3 Sudeste 5 Sudeste 0 901.3 0.7 91
2018-08-31 00:00:00 16.9 0 Calma 3 Norte 0 901.5 1.3 90
2018-08-30 23:00:00 17.3 3 Este 8 Este 0 901.3 1.8 88
2018-08-30 22:00:00 17.9 2 Sudoeste 22 Oeste 0 900.6 1.1 86
2018-08-30 21:00:00 19 10 Este 37 Sudoeste 8.6 900.2 0.7 73
2018-08-30 20:00:00 24.3 4 Nordeste 16 Este 0 899.5 0 56
2018-08-30 19:00:00 25.5 5 Este 21 Nordeste 0 899.5 -0.4 48
2018-08-30 18:00:00 26.4 4 Nordeste 19 Este 0 899.5 -0.7 49
2018-08-30 17:00:00 26.7 10 Este 24 Este 0 899.5 -0.8 45
2018-08-30 16:00:00 27.9 7 Oeste 23 Oeste 0 899.9 -1 34
2018-08-30 15:00:00 28.2 8 Oeste 23 Noroeste 0 900.2 -1.3 41
2018-08-30 14:00:00 26.8 4 Noroeste 17 Noroeste 0 900.3 -1.5 41
2018-08-30 13:00:00 25.9 5 Noroeste 14 Oeste 0 900.9 -0.9 51
2018-08-30 12:00:00 23.2 3 Sudoeste 7 Sudeste 0 901.5 -0.3 55
2018-08-30 11:00:00 20.7 4 Sur 8 Sudeste 0 901.8 0.3 69
2018-08-30 10:00:00 17.6 3 Sudeste 7 Sudeste 0 901.8 0.4 76
2018-08-30 09:00:00 14 0 Calma 4 Sudeste 0 901.8 0.1 90
2018-08-30 08:00:00 12.4 0 Calma 5 Sur 0 901.5 -0.2 93
2018-08-30 07:00:00 12.4 0 Calma 5 Este 0 901.4 -0.5 89
2018-08-30 06:00:00 12.9 3 Sudeste 5 Este 0 901.7 -0.2 88
2018-08-30 05:00:00 13.8 0 Calma 6 Sudeste 0 901.7 -0.5 87
2018-08-30 04:00:00 14.6 0 Calma 5 Este 0 901.9 0 84
2018-08-30 03:00:00 15.3 2 Nordeste 9 Este 0 901.9 0 83
2018-08-30 02:00:00 15.8 2 Nordeste 9 Este 0 902.2 0.7 81
2018-08-30 01:00:00 16.8 2 Nordeste 10 Sudeste 0 901.9 0.9 75
2018-08-30 00:00:00 18.2 4 Este 14 Este 0 901.9 1.5 71
2018-08-29 23:00:00 19.5 6 Este 18 Este 0 901.5 1.7 67
2018-08-29 22:00:00 20.7 8 Este 19 Este 0 901 1.9 61
2018-08-29 21:00:00 22.1 4 Nordeste 30 Este 0 900.4 1.6 53
2018-08-29 20:00:00 23.8 4 Nordeste 22 Este 0 899.8 0.9 49
2018-08-29 19:00:00 26.8 5 Nordeste 22 Este 0 899.1 -0.2 41
2018-08-29 18:00:00 28.4 5 Nordeste 21 Norte 0 898.8 -0.9 39
2018-08-29 17:00:00 28.7 5 Nordeste 23 Norte 0 898.9 -0.5 37
2018-08-29 16:00:00 27.8 9 Norte 23 Este 0 899.3 -0.6 45
2018-08-29 15:00:00 26 8 Norte 22 Norte 0 899.7 -0.4 49
2018-08-29 14:00:00 28.3 5 Nordeste 16 Este 0 899.4 -0.5 36
2018-08-29 13:00:00 26.9 5 Nordeste 17 Norte 0 899.9 0.2 46
2018-08-29 12:00:00 24.7 4 Norte 10 Norte 0 900.1 0.5 58
2018-08-29 11:00:00 21.1 3 Sudoeste 6 Oeste 0 899.9 0.7 67
2018-08-29 10:00:00 17.8 2 Sur 5 Sudeste 0 899.7 0.9 83
2018-08-29 09:00:00 14.4 3 Oeste 6 Sudeste 0 899.6 1.1 95
2018-08-29 08:00:00 12.9 0 Calma 4 Este 0 899.2 0.6 93
2018-08-29 07:00:00 13.4 2 Este 5 Sudeste 0 898.8 0.2 93
2018-08-29 06:00:00 14.1 3 Sudeste 6 Este 0 898.5 -0.2 92
2018-08-29 05:00:00 14.9 0 Calma 3 Sudeste 0 898.6 0.1 91
2018-08-29 04:00:00 15.8 0 Calma 7 Sudeste 0 898.6 -0.1 90
2018-08-29 03:00:00 16.6 0 Calma 6 Sur 0 898.7 0.1 88
2018-08-29 02:00:00 17.6 3 Sudeste 7 Norte 0 898.5 0.2 86
2018-08-29 01:00:00 18 3 Norte 10 Sur 0 898.7 0.3 83
2018-08-29 00:00:00 18.2 5 Sudeste 11 Sudeste 0 898.6 1.1 77
2018-08-28 23:00:00 18.1 5 Este 26 Sur 0.2 898.3 1.9 83
2018-08-28 22:00:00 19.1 6 Norte 28 Sudeste 3 898.4 1 75
2018-08-28 21:00:00 23 12 Sudeste 39 Sur 0 897.5 0.6 47
2018-08-28 20:00:00 22.2 3 Sudoeste 19 Oeste 0 896.4 -1.2 59
2018-08-28 19:00:00 24.6 19 Oeste 54 Oeste 1 897.4 -0.7 49
2018-08-28 18:00:00 29.6 16 Sudoeste 31 Sur 0 896.9 -1.5 31
2018-08-28 17:00:00 30 13 Sudoeste 39 Sur 0 897.6 -1.2 33
2018-08-28 16:00:00 30.1 17 Sudoeste 40 Sudoeste 0 898.1 -1.4 32
2018-08-28 15:00:00 29.7 15 Sudoeste 40 Sur 0 898.4 -1 32
2018-08-28 14:00:00 29.4 15 Sudoeste 43 Sur 0 898.8 -0.5 32
2018-08-28 13:00:00 25.9 10 Sudoeste 22 Sudoeste 0 899.5 0.3 41
2018-08-28 12:00:00 22.4 3 Oeste 6 Noroeste 0 899.4 0.1 64
2018-08-28 11:00:00 19.2 0 Calma 5 Sudoeste 0 899.3 0.1 67
2018-08-28 10:00:00 16.1 0 Calma 4 Sur 0 899.2 0.3 66
2018-08-28 09:00:00 13.5 3 Este 6 Norte 0 899.3 0.8 70
2018-08-28 08:00:00 12.2 0 Calma 9 Sur 0 899.2 0.7 69
2018-08-28 07:00:00 12 2 Este 12 Este 0 898.9 0.2 69
2018-08-28 06:00:00 11.9 3 Sudeste 6 Nordeste 0 898.5 -0.6 68
2018-08-28 05:00:00 12.2 3 Este 5 Sudeste 0 898.5 -1.1 67
2018-08-28 04:00:00 13.2 0 Calma 4 Este 0 898.7 -0.5 65
2018-08-28 03:00:00 14.4 0 Calma 6 Este 0 899.1 -0.2 60
2018-08-28 02:00:00 15.5 3 Sudeste 4 Este 0 899.6 0.3 58
2018-08-28 01:00:00 16 2 Este 3 Sudeste 0 899.2 0.1 54
2018-08-28 00:00:00 17.4 3 Este 6 Este 0 899.3 0.7 47
2018-08-27 23:00:00 19.3 2 Este 8 Este 0 899.3 1.1 40
2018-08-27 22:00:00 22.2 3 Este 5 Este 0 899.1 1.3 33
2018-08-27 21:00:00 26.1 4 Oeste 12 Oeste 0 898.6 0.7 27
2018-08-27 20:00:00 29.3 10 Oeste 19 Oeste 0 898.2 0.5 21
2018-08-27 19:00:00 31 10 Oeste 20 Noroeste 0 897.8 -0.1 16
2018-08-27 18:00:00 31.8 10 Oeste 25 Sur 0 897.9 -0.3 19
2018-08-27 17:00:00 32.5 9 Sudoeste 22 Oeste 0 897.7 -0.9 23
2018-08-27 16:00:00 32.1 9 Oeste 23 Oeste 0 897.9 -0.9 20
2018-08-27 15:00:00 31.4 4 Este 18 Oeste 0 898.2 -0.9 23
2018-08-27 14:00:00 30.3 5 Sudoeste 17 Sudeste 0 898.6 -0.6 29
2018-08-27 13:00:00 29.4 3 Nordeste 12 Sur 0 898.8 -0.5 34
2018-08-27 12:00:00 25.4 3 Sudoeste 6 Oeste 0 899.1 -0.2 36
2018-08-27 11:00:00 20.2 3 Oeste 5 Oeste 0 899.2 0.3 52
2018-08-27 10:00:00 16.1 2 Oeste 4 Este 0 899.3 0.8 64
2018-08-27 09:00:00 11.6 2 Sur 4 Sur 0 899.3 0.9 79
2018-08-27 08:00:00 8.8 0 Calma 4 Este 0 898.9 0.6 84
2018-08-27 07:00:00 9.3 0 Calma 3 Este 0 898.5 0.1 82
2018-08-27 06:00:00 10.1 0 Calma 4 Este 0 898.4 0 79
2018-08-27 05:00:00 11 0 Calma 6 Este 0 898.3 -0.1 75
2018-08-27 04:00:00 11.5 3 Nordeste 5 Norte 0 898.4 -0.1 73
2018-08-27 03:00:00 12.4 0 Calma 4 Sudeste 0 898.4 0.1 68
2018-08-27 02:00:00 13.6 2 Este 6 Este 0 898.4 0.4 63
2018-08-27 01:00:00 14.8 0 Calma 6 Sudeste 0 898.5 1.1 58
2018-08-27 00:00:00 16.2 4 Este 7 Este 0 898.3 1.4 53
2018-08-26 23:00:00 17.8 3 Sudeste 7 Este 0 898 1.4 47
2018-08-26 22:00:00 20.3 2 Este 4 Este 0 897.4 1 44
2018-08-26 21:00:00 23.6 0 Calma 10 Oeste 0 896.9 0.6 37
2018-08-26 20:00:00 26 7 Oeste 17 Oeste 0 896.6 0.2 33
2018-08-26 19:00:00 27.5 6 Oeste 21 Oeste 0 896.4 -0.4 32
2018-08-26 18:00:00 28.5 13 Oeste 26 Oeste 0 896.3 -1 29
2018-08-26 17:00:00 29 9 Noroeste 30 Oeste 0 896.4 -1.3 31
2018-08-26 16:00:00 28.1 10 Oeste 20 Sudoeste 0 896.8 -1.3 34
2018-08-26 15:00:00 27.3 8 Oeste 26 Oeste 0 897.3 -1.2 36
2018-08-26 14:00:00 26 7 Sudoeste 22 Oeste 0 897.7 -0.8 40
2018-08-26 13:00:00 24.7 8 Sudoeste 21 Sudoeste 0 898.1 -0.5 42
2018-08-26 12:00:00 22.5 5 Noroeste 12 Oeste 0 898.5 -0.1 47
2018-08-26 11:00:00 17.3 3 Sudoeste 6 Sur 0 898.5 0 69
2018-08-26 10:00:00 13 2 Sudoeste 4 Sudoeste 0 898.6 0.3 75
2018-08-26 09:00:00 9 0 Calma 5 Sudeste 0 898.6 0.4 86
2018-08-26 08:00:00 7.2 2 Este 4 Este 0 898.5 0.5 89
2018-08-26 07:00:00 7.6 0 Calma 5 Sudeste 0 898.3 0.2 86
2018-08-26 06:00:00 8.4 3 Sudeste 6 Este 0 898.2 0.1 86
2018-08-26 05:00:00 9.3 2 Sudeste 5 Sudeste 0 898 -0.5 82
2018-08-26 04:00:00 10.4 0 Calma 6 Sudeste 0 898.1 -0.6 80
2018-08-26 03:00:00 11.3 2 Este 6 Nordeste 0 898.1 -0.6 78
2018-08-26 02:00:00 12.3 3 Este 12 Este 0 898.5 0.1 75
2018-08-26 01:00:00 13.1 4 Este 11 Sudeste 0 898.7 0.9 72
2018-08-26 00:00:00 14.2 4 Este 13 Sudeste 0 898.7 1.9 69
2018-08-25 23:00:00 15.7 2 Nordeste 11 Sudeste 0 898.4 2.4 64
2018-08-25 22:00:00 17.4 4 Nordeste 14 Este 0 897.8 1.9 57
2018-08-25 21:00:00 19.8 4 Nordeste 18 Este 0 896.8 1.3 50
2018-08-25 20:00:00 22.5 3 Nordeste 22 Este 0 896 0.3 43
2018-08-25 19:00:00 25.4 7 Norte 27 Este 0 895.9 -0.1 37
2018-08-25 18:00:00 28.1 5 Norte 25 Nordeste 0 895.5 -1.1 33
2018-08-25 17:00:00 27.8 8 Norte 27 Oeste 0 895.7 -1.2 30
2018-08-25 16:00:00 27.7 12 Oeste 27 Oeste 0 896 -1.7 24
2018-08-25 15:00:00 27 13 Sudoeste 29 Oeste 0 896.6 -1.7 27
2018-08-25 14:00:00 26 8 Oeste 21 Oeste 0 896.9 -1.8 30
2018-08-25 13:00:00 24.4 5 Sudoeste 14 Oeste 0 897.7 -1.1 33
2018-08-25 12:00:00 22 4 Sudoeste 12 Norte 0 898.3 -0.5 51
2018-08-25 11:00:00 18.6 4 Noroeste 11 Norte 0 898.7 0 68
2018-08-25 10:00:00 13.8 2 Oeste 7 Sur 0 898.8 0.2 82
2018-08-25 09:00:00 10.3 0 Calma 4 Sudoeste 0 898.8 0.1 90
2018-08-25 08:00:00 8.1 2 Este 5 Sudeste 0 898.7 -0.3 90
2018-08-25 07:00:00 8.6 0 Calma 5 Este 0 898.6 -0.8 88
2018-08-25 06:00:00 9.3 0 Calma 4 Sudeste 0 898.7 -1 87
2018-08-25 05:00:00 10 0 Calma 6 Este 0 899 -0.9 87
2018-08-25 04:00:00 10.9 4 Este 7 Sudeste 0 899.4 -0.9 87
2018-08-25 03:00:00 11.8 0 Calma 5 Norte 0 899.7 -0.6 84
2018-08-25 02:00:00 12.7 3 Este 5 Sudeste 0 899.9 -0.3 83
2018-08-25 01:00:00 13.9 2 Sudeste 6 Sudeste 0 900.3 0.4 79
2018-08-25 00:00:00 15.5 0 Calma 8 Este 0 900.3 1.2 75
2018-08-24 23:00:00 17.4 6 Este 14 Sudeste 0 900.2 1.9 70
2018-08-24 22:00:00 19.3 4 Este 13 Este 0 899.9 1.7 62
2018-08-24 21:00:00 21.6 3 Nordeste 24 Norte 0 899.1 0.7 54
2018-08-24 20:00:00 25.5 12 Noroeste 24 Noroeste 0 898.3 -0.4 22
2018-08-24 19:00:00 27.2 9 Noroeste 24 Noroeste 0 898.2 -1 23
2018-08-24 18:00:00 28 12 Oeste 25 Noroeste 0 898.4 -1.5 22
2018-08-24 17:00:00 28.2 6 Oeste 23 Noroeste 0 898.7 -1.7 26
2018-08-24 16:00:00 27.8 6 Sudoeste 41 Norte 0 899.2 -1.7 27
2018-08-24 15:00:00 27.1 6 Nordeste 21 Este 0 899.9 -1 33
2018-08-24 14:00:00 25.6 9 Este 19 Este 0 900.4 -0.9 45
2018-08-24 13:00:00 25.5 6 Norte 21 Norte 0 900.9 -0.5 45
2018-08-24 12:00:00 23.4 5 Norte 13 Norte 0 900.9 -0.2 47
2018-08-24 11:00:00 18.8 3 Sur 7 Oeste 0 901.3 0.4 66
2018-08-24 10:00:00 14.7 2 Sudoeste 7 Sur 0 901.4 0.7 79
2018-08-24 09:00:00 11.2 2 Sudoeste 6 Sur 0 901.1 0.4 91
2018-08-24 08:00:00 8.5 2 Este 5 Sudeste 0 900.9 0 92
2018-08-24 07:00:00 8.8 3 Este 5 Este 0 900.7 -0.2 92
2018-08-24 06:00:00 9.2 4 Este 6 Este 0 900.7 -0.3 91
2018-08-24 05:00:00 9.7 2 Este 5 Este 0 900.9 -0.6 90
2018-08-24 04:00:00 10.3 0 Calma 7 Sudeste 0 900.9 -0.8 90
2018-08-24 03:00:00 11.1 0 Calma 4 Este 0 901 -0.8 88
2018-08-24 02:00:00 11.9 0 Calma 8 Este 0 901.5 0.2 85
2018-08-24 01:00:00 13 2 Este 8 Este 0 901.7 0.3 84
2018-08-24 00:00:00 14.2 0 Calma 7 Este 0 901.8 1.5 81
2018-08-23 23:00:00 15.8 2 Este 8 Sudoeste 0 901.3 1.3 78
2018-08-23 22:00:00 17 2 Noroeste 10 Nordeste 0 901.4 1.9 71
2018-08-23 21:00:00 17.6 3 Norte 14 Sudeste 0 900.3 1.5 73
2018-08-23 20:00:00 17.9 6 Sudeste 33 Norte 1.2 900 1.6 69
2018-08-23 19:00:00 22.6 6 Noroeste 17 Nordeste 0 899.5 0.6 51
2018-08-23 18:00:00 22.8 5 Oeste 22 Sur 0 898.8 -0.2 51
2018-08-23 17:00:00 25 15 Sur 24 Sur 0 898.4 -0.9 42
2018-08-23 16:00:00 24.5 9 Sudeste 24 Sur 0 898.9 -1 44
2018-08-23 15:00:00 26.7 5 Sur 18 Noroeste 0 899 -1.3 35
2018-08-23 14:00:00 28.3 7 Oeste 19 Oeste 0 899.3 -1.1 36
2018-08-23 13:00:00 27.4 6 Oeste 14 Sur 0 899.9 -0.4 35
2018-08-23 12:00:00 24.4 3 Oeste 7 Oeste 0 900.3 0 43
2018-08-23 11:00:00 20.6 2 Oeste 5 Sudoeste 0 900.4 0.4 57
2018-08-23 10:00:00 16.7 3 Sudoeste 4 Sur 0 900.3 0.4 71
2018-08-23 09:00:00 14.1 2 Sur 6 Oeste 0 900.3 0.7 75
2018-08-23 08:00:00 12.6 3 Este 5 Este 0 900 0.1 78
2018-08-23 07:00:00 12.2 0 Calma 5 Este 0 899.9 -0.3 79
2018-08-23 06:00:00 12.3 2 Sudeste 5 Este 0 899.6 -1 76
2018-08-23 05:00:00 13.3 2 Sudeste 5 Sudeste 0 899.9 -1 73
2018-08-23 04:00:00 14 2 Este 6 Este 0 900.2 -0.6 70
2018-08-23 03:00:00 14.6 3 Este 10 Este 0 900.6 0.4 67
2018-08-23 02:00:00 16.7 2 Este 9 Oeste 0 900.9 0.9 59
2018-08-23 01:00:00 18.8 5 Oeste 10 Oeste 0 900.8 0.4 55
2018-08-23 00:00:00 20.8 4 Sudoeste 9 Noroeste 0 900.2 0.1 48